Station: Mangrove Mountain  

  Atmospheric Gas Attenuation - ITU Rec 676-11   ----------------- dB/100km -----------------
Date Time Temp RH % AH g/m3 Dew Point Wind Direction Speed kph Gust kph Barometer mB Rainfall Since 9am 24GHz 47GHz 76GHz 122GHz 134GHz 241GHz
08/05 12:30 18.7 44 7.04 6.2 13 24 1013.1 0 16.1 22.2 31.7 83.0 73.7 252.5
08/05 12:20 18.2 44 6.84 5.7 19 24 1013.1 0 15.7 22.0 31.2 81.6 71.8 245.9
08/05 12:10 18.1 45 6.95 6 11 15 1013.1 0 15.9 22.2 31.7 82.8 73.2 250.7
08/05 12:00 17.9 46 7.02 6.1 11 20 1013.1 0 16.1 22.4 32.0 83.6 74.2 254.2
08/05 11:50 18 47 7.22 6.5 11 15 1013.1 0 16.5 22.6 32.7 85.4 76.5 262.1
08/05 11:40 17.4 45 6.67 5.6 17 22 1013.1 0 15.3 22.0 30.9 80.8 70.5 241.3
08/05 11:30 16.9 46 6.62 5.2 17 24 1013.1 0 15.3 22.0 30.9 80.8 70.4 240.7
08/05 11:20 16.3 46 6.38 4.9 15 22 1013.1 0 14.8 21.8 30.3 79.1 68.1 232.6
08/05 11:10 16.8 50 7.15 6.3 11 15 1013.1 0 16.4 22.8 32.9 86.0 76.8 263.1
08/05 11:00 16 47 6.4 4.7 11 20 1013.1 0 14.8 21.9 30.5 79.6 68.6 234.3
08/05 10:50 15.9 49 6.64 5.2 11 17 1013.1 0 15.3 22.3 31.4 82.0 71.5 244.5
08/05 10:40 15.4 50 6.57 5 17 20 1013.1 0 15.2 22.3 31.3 81.9 71.1 243.1
08/05 10:30 15.9 51 6.91 5.8 9 19 1013.1 0 15.9 22.7 32.4 84.7 74.8 255.9
08/05 10:20 15.5 52 6.87 5.9 7 11 1013.1 0 15.8 22.7 32.4 84.7 74.6 255.5
08/05 10:10 14.9 53 6.75 5.4 9 11 1013.1 0 15.6 22.7 32.2 84.1 73.8 252.3
08/05 10:00 14.2 54 6.59 5 15 24 1013.1 0 15.3 22.7 31.9 83.3 72.5 247.6
08/05 09:50 13.9 55 6.59 5 13 15 1013.1 0 15.3 22.7 32.0 83.6 72.7 248.5
08/05 09:40 13.2 56 6.43 4.6 13 17 1013.1 0 15.0 22.7 31.7 82.7 71.4 243.8
08/05 09:30 13 57 6.46 4.7 13 20 1013.1 0 15.1 22.8 31.9 83.2 72.0 245.7
08/05 09:20 12.8 57 6.39 4.5 13 17 1013.1 0 14.9 22.7 31.7 82.8 71.3 243.3
08/05 09:10 12.3 59 6.41 4.5 11 17 1013.1 0 15.0 22.9 32.0 83.5 72.0 245.7
08/05 09:00 11.6 60 6.24 4.1 15 24 1013.1 0 14.6 22.8 31.6 82.5 70.5 240.4
08/05 08:50 11.1 60 6.04 3.6 13 15 1013.1 0.2 14.2 22.6 31.0 81.0 68.5 233.2
08/05 08:40 10.6 60 5.86 3.1 17 22 1013.1 0.2 13.9 22.4 30.5 79.7 66.7 226.8
08/05 08:30 10.3 62 5.94 3.3 13 22 1013.1 0.2 14.1 22.6 31.0 80.8 67.9 231.2
08/05 08:20 9.7 61 5.63 2.7 15 19 1013.1 0.2 13.4 22.3 30.0 78.3 64.5 219.3
08/05 08:10 9.2 64 5.72 2.9 15 20 1013.1 0.2 13.6 22.6 30.5 79.7 66.1 224.6
08/05 08:00 8.6 65 5.59 2.4 13 20 1013.1 0.2 13.4 22.5 30.3 79.0 65.0 220.6
08/05 07:50 8.3 67 5.65 2.5 15 20 1013.1 0.2 13.5 22.7 30.6 79.9 66.0 224.1
08/05 07:40 7.6 67 5.4 2 11 15 1013.1 0.2 13.0 22.5 29.9 78.0 63.4 214.9
08/05 07:30 7 70 5.43 1.9 11 17 1013.1 0.2 13.1 22.7 30.3 78.9 64.2 217.8
08/05 07:20 6.4 71 5.29 1.5 11 15 1013.1 0.2 12.8 22.6 29.9 78.0 62.9 213.2
08/05 07:10 6 72 5.23 1.3 7 9 1013.1 0.2 12.7 22.6 29.9 77.8 62.5 211.6
08/05 07:00 5.9 72 5.19 1.2 9 17 1013.1 0.2 12.6 22.6 29.7 77.5 62.1 210.0
08/05 06:50 5.8 72 5.16 1.1 9 11 1013.1 0.2 12.5 22.6 29.7 77.3 61.7 208.9
08/05 06:40 5.7 72 5.13 1 11 13 1013.1 0.2 12.5 22.5 29.6 77.1 61.4 207.8
08/05 06:30 5.6 72 5.09 1 11 19 1013.1 0.2 12.4 22.5 29.5 76.8 61.0 206.3
08/05 06:20 5.5 73 5.13 1 9 13 1013.1 0.2 12.5 22.6 29.7 77.3 61.6 208.4
08/05 06:10 5.5 73 5.13 1 9 11 1013.1 0.2 12.5 22.6 29.7 77.3 61.6 208.4
08/05 06:00 5.5 73 5.13 1.1 9 17 1013.1 0.2 12.5 22.6 29.7 77.3 61.6 208.4
08/05 05:50 5.3 73 5.06 0.8 9 15 1013.1 0.2 12.3 22.5 29.5 76.7 60.9 205.7
08/05 05:40 5.3 72 4.99 0.6 9 13 1013.1 0.2 12.2 22.4 29.2 76.0 60.0 202.6
08/05 05:30 5.4 72 5.03 0.8 9 13 1013.1 0.2 12.3 22.5 29.3 76.3 60.4 204.1
08/05 05:20 5.5 72 5.06 0.8 13 13 1013.1 0.2 12.3 22.5 29.4 76.5 60.7 205.2
08/05 05:10 5.2 73 5.03 0.7 7 13 1013.1 0.2 12.3 22.5 29.4 76.5 60.5 204.6
08/05 05:00 5.1 73 5 0.7 9 13 1013.1 0.2 12.2 22.5 29.3 76.3 60.2 203.5
08/05 04:50 5.2 71 4.89 0.5 9 11 1013.1 0.2 12.0 22.3 28.8 75.1 58.8 198.3
08/05 04:40 5.3 70 4.86 0.4 9 9 1013.1 0.2 11.9 22.2 28.7 74.7 58.3 196.7
08/05 04:30 5.4 71 4.96 0.6 9 15 1013.1 0.2 12.1 22.3 29.0 75.6 59.5 201.0
08/05 04:20 5.4 71 4.96 0.5 9 11 1013.1 0.2 12.1 22.3 29.0 75.6 59.5 201.0
08/05 04:10 5.2 71 4.89 0.5 11 15 1013.1 0.2 12.0 22.3 28.8 75.1 58.8 198.3
08/05 04:00 5 73 4.96 0.6 9 13 1013.1 0.2 12.1 22.4 29.2 76.0 59.8 202.0
08/05 03:50 5 73 4.96 0.5 11 15 1013.1 0.2 12.1 22.4 29.2 76.0 59.8 202.0
08/05 03:40 4.7 72 4.8 0.2 9 13 1013.1 0.2 11.8 22.3 28.7 74.6 58.0 195.5
08/05 03:30 4.8 72 4.83 0.2 7 13 1013.1 0.2 11.9 22.3 28.7 74.8 58.3 196.6
08/05 03:20 5 71 4.83 0.2 7 9 1013.1 0.2 11.9 22.2 28.7 74.6 58.1 196.1
08/05 03:10 4.8 72 4.83 0.2 7 11 1013.1 0.2 11.9 22.3 28.7 74.8 58.3 196.6
08/05 03:00 5 73 4.96 0.6 7 13 1013.1 0.2 12.1 22.4 29.2 76.0 59.8 202.0
08/05 02:50 4.7 72 4.8 0.1 9 15 1013.1 0.2 11.8 22.3 28.7 74.6 58.0 195.5
08/05 02:40 4.5 73 4.8 0.1 7 9 1013.1 0.2 11.8 22.3 28.7 74.8 58.1 196.0
08/05 02:30 4.6 72 4.77 0 6 11 1013.1 0.2 11.7 22.2 28.6 74.4 57.7 194.4
08/05 02:20 4.5 73 4.8 0.1 6 7 1013.1 0.2 11.8 22.3 28.7 74.8 58.1 196.0
08/05 02:10 4.5 72 4.74 -0.1 6 6 1013.1 0.2 11.7 22.2 28.5 74.2 57.4 193.3
08/05 02:00 4.6 72 4.77 0 7 13 1013.1 0.2 11.7 22.2 28.6 74.4 57.7 194.4
08/05 01:50 3.9 74 4.68 -0.2 7 9 1013.1 0.2 11.6 22.3 28.5 74.1 57.0 192.0
08/05 01:40 3.5 77 4.74 -0.2 6 7 1013.1 0.2 11.7 22.5 28.9 75.1 58.1 195.8
08/05 01:30 3.8 74 4.65 -0.4 4 6 1013.1 0.2 11.5 22.3 28.4 73.9 56.7 190.9
08/05 01:20 4.3 72 4.67 -0.3 4 4 1013.1 0.2 11.5 22.2 28.3 73.6 56.6 190.6
08/05 01:10 4.8 70 4.7 -0.2 6 6 1013.1 0.2 11.6 22.1 28.2 73.5 56.6 190.8
08/05 01:00 4.8 70 4.7 -0.2 6 9 1013.1 0.2 11.6 22.1 28.2 73.5 56.6 190.8
08/05 00:50 5 69 4.69 -0.2 6 6 1013.1 0.2 11.6 22.0 28.1 73.2 56.4 189.9
08/05 00:40 4.9 70 4.73 -0.1 6 9 1013.1 0.2 11.7 22.1 28.3 73.7 56.9 191.9
08/05 00:20 5.3 66 4.58 -0.4 7 9 1013.1 0.2 11.3 21.8 27.6 71.8 54.7 184.3
08/05 00:10 5 70 4.76 0 7 9 1013.1 0.2 11.7 22.1 28.4 73.9 57.2 193.0
08/05 00:00 4.9 68 4.59 -0.5 6 9 1013.1 0.2 11.4 21.9 27.8 72.3 55.2 185.6
07/05 23:50 4.6 70 4.64 -0.4 6 9 1013.1 0.2 11.5 22.0 28.1 73.1 56.0 188.6
07/05 23:40 5.1 68 4.65 -0.3 4 4 1013.1 0.2 11.5 21.9 27.9 72.7 55.8 187.8
07/05 23:30 5.7 65 4.63 -0.4 7 11 1013.1 0.2 11.4 21.8 27.7 71.9 55.1 185.5
07/05 23:20 5.9 65 4.69 -0.2 6 7 1013.1 0.2 11.5 21.8 27.8 72.4 55.7 187.7
07/05 23:10 6 63 4.58 -0.5 9 11 1013.1 0.2 11.3 21.6 27.4 71.2 54.3 182.7
07/05 23:00 6.2 61 4.49 -0.7 6 9 1013.1 0.2 11.1 21.4 27.0 70.1 53.0 178.3
07/05 22:50 6.5 59 4.43 -1 6 6 1013.1 0.2 11.0 21.3 26.6 69.2 52.1 175.0
07/05 22:40 6.4 60 4.47 -0.8 9 11 1013.1 0.2 11.0 21.4 26.8 69.7 52.6 177.0
07/05 22:30 6.7 58 4.41 -1 7 13 1013.1 0.2 10.9 21.2 26.5 68.9 51.7 173.7
07/05 22:20 6.5 59 4.43 -1 6 7 1013.1 0.2 11.0 21.3 26.6 69.2 52.1 175.0
07/05 22:10 7.2 55 4.32 -1.3 7 9 1013.1 0.2 10.7 20.9 26.0 67.5 50.3 168.8
07/05 22:00 7.6 54 4.35 -1.1 9 17 1013.1 0.2 10.8 20.9 26.0 67.5 50.4 169.2
07/05 21:50 7.7 53 4.3 -1.3 9 13 1013.1 0.2 10.6 20.8 25.8 66.9 49.7 166.9
07/05 21:40 7.9 52 4.27 -1.4 9 15 1013.1 0.2 10.6 20.7 25.6 66.5 49.2 165.2
07/05 21:30 7.9 53 4.36 -1.1 13 20 1013.1 0.2 10.8 20.8 25.9 67.3 50.3 169.0
07/05 21:20 8 52 4.3 -1.3 13 17 1013.1 0.2 10.6 20.7 25.7 66.7 49.5 166.3
07/05 21:10 8 52 4.3 -1.3 11 11 1013.1 0.2 10.6 20.7 25.7 66.7 49.5 166.3
07/05 21:00 8 52 4.3 -1.2 13 24 1013.1 0.2 10.6 20.7 25.7 66.7 49.5 166.3
07/05 20:50 8.1 52 4.33 -1.2 13 17 1013.1 0.2 10.7 20.8 25.8 66.9 49.8 167.3
07/05 20:40 8.2 51 4.27 -1.4 9 13 1013.1 0.2 10.6 20.6 25.5 66.2 49.0 164.6
07/05 20:30 8.1 52 4.33 -1.1 11 17 1013.1 0.2 10.7 20.8 25.8 66.9 49.8 167.3
07/05 20:20 8.2 51 4.27 -1.4 9 11 1013.1 0.2 10.6 20.6 25.5 66.2 49.0 164.6
07/05 20:10 8.6 49 4.21 -1.5 11 15 1013.1 0.2 10.4 20.5 25.2 65.3 48.1 161.3
07/05 20:00 8.7 49 4.24 -1.4 9 15 1013.1 0.2 10.5 20.5 25.3 65.5 48.4 162.4
07/05 19:50 8.9 48 4.21 -1.5 13 20 1013.1 0.2 10.4 20.4 25.1 65.1 47.9 160.7

Last Refresh: 08-May-2026 12:08:50

Bureau of Meteorology